F/V Anna Mamm Mari — FOHD — position and weather

sailwx.info

Track history (hours):
 
Tides and Currents Weather Stations Pressure Air Temp Water Temp Dewpoint Dewpoint Depression Visibility Wind Speed Wind Dir Waves Ship Positions

F/V Anna Mamm Mari

Last reported at 2015-Apr-17 00:24 UTC. Time now 2015-Apr-18 16:42 UTC.
Position N 46°34' W 002°06'.

Length 17 m.

Type: Fishing. MMSI: 228393000.

Date/timePositionNaut miles runAvg speedWind from/ knotsBaromVisibWave heightAir tempDewpointWater temp
2015-Apr-17 00:24N 46°34' W 002°06'7 8.4
2015-Apr-16 23:33N 46°31' W 001°57'7 6.8
2015-Apr-16 22:33N 46°29' W 001°48'1 0.5
2015-Apr-16 21:33N 46°30' W 001°47'0 0.0
2015-Apr-16 20:33N 46°30' W 001°47'0 0.0
2015-Apr-16 19:33N 46°30' W 001°47'0 0.0
2015-Apr-16 18:33N 46°30' W 001°47'0 0.1
2015-Apr-16 17:33N 46°30' W 001°47'0 0.2
2015-Apr-16 16:34N 46°30' W 001°47'6 6.2
2015-Apr-16 15:33N 46°31' W 001°56'9 9.3
2015-Apr-16 14:33N 46°35' W 002°09'39 4.9
2015-Apr-16 06:31N 46°52' W 002°59'2 1.8
2015-Apr-16 05:25N 46°51' W 003°02'1 1.5
2015-Apr-16 04:33N 46°51' W 003°04'3 3.3
2015-Apr-16 03:32N 46°54' W 003°03'2 2.0
2015-Apr-16 02:33N 46°56' W 003°04'2 1.9
2015-Apr-16 01:33N 46°58' W 003°05'0 0.4
2015-Apr-16 00:32N 46°58' W 003°06'0 0.0
2015-Apr-15 23:33N 46°58' W 003°06'0 0.0
2015-Apr-15 22:22N 46°58' W 003°06'0 0.0
2015-Apr-15 19:09N 46°58' W 003°06'0 0.0
2015-Apr-15 17:32N 46°58' W 003°06'6 0.8
2015-Apr-15 09:31N 46°52' W 003°07'3 2.6
2015-Apr-15 08:33N 46°55' W 003°07'2 1.5
2015-Apr-15 07:33N 46°56' W 003°08'2 1.4
2015-Apr-15 06:29N 46°57' W 003°09'2 1.7
2015-Apr-15 05:18N 46°55' W 003°08'1 1.3
2015-Apr-15 04:24N 46°54' W 003°07'2 1.9
2015-Apr-15 03:32N 46°56' W 003°07'46 1.7
2015-Apr-14 00:12N 46°34' W 002°08'6 9.1
2015-Apr-13 23:30N 46°32' W 001°60'9 9.2
2015-Apr-13 22:33N 46°28' W 001°48'2 1.6
2015-Apr-13 21:33N 46°30' W 001°47'0 0.2
2015-Apr-13 20:33N 46°30' W 001°47'0 0.0
2015-Apr-13 19:33N 46°30' W 001°47'0 0.0
2015-Apr-13 18:33N 46°30' W 001°47'3 2.7
2015-Apr-13 17:33N 46°29' W 001°51'9 8.9
2015-Apr-13 16:33N 46°32' W 002°03'10 8.9
2015-Apr-13 15:26N 46°36' W 002°16'44 5.5
2015-Apr-13 07:21N 47°03' W 003°08'31 8.2
2015-Apr-13 03:32N 47°33' W 003°20'8 8.4
2015-Apr-13 02:33N 47°41' W 003°22'  
2015-Apr-10 16:33N 47°44' W 003°22'0 0.0
2015-Apr-10 15:33N 47°44' W 003°22'0 0.0
2015-Apr-10 14:33N 47°44' W 003°22'0 0.0
2015-Apr-10 13:33N 47°44' W 003°22'0 0.0
2015-Apr-10 12:33N 47°44' W 003°22'0 0.0
2015-Apr-10 11:33N 47°44' W 003°22'0 0.0
2015-Apr-10 10:33N 47°44' W 003°22'0 0.0
2015-Apr-10 05:30N 47°44' W 003°22'0 0.0
2015-Apr-10 04:33N 47°44' W 003°22'0 0.0
2015-Apr-10 03:33N 47°44' W 003°22'0 0.0
2015-Apr-10 02:32N 47°44' W 003°22'0 0.0
2015-Apr-10 01:33N 47°44' W 003°22'0 0.0
2015-Apr-10 00:33N 47°44' W 003°22'0 0.0
2015-Apr-09 23:33N 47°44' W 003°22'0 0.0
2015-Apr-09 22:33N 47°44' W 003°22'0 0.0
2015-Apr-09 21:33N 47°44' W 003°22'0 0.0
2015-Apr-09 20:33N 47°44' W 003°22'0 0.0
2015-Apr-09 19:33N 47°44' W 003°22'0 0.0
2015-Apr-09 18:33N 47°44' W 003°22'0 0.0
2015-Apr-09 17:32N 47°44' W 003°22'0 0.0
2015-Apr-09 16:33N 47°44' W 003°22'0 0.0
2015-Apr-09 15:33N 47°44' W 003°22'0 0.0
2015-Apr-09 14:33N 47°44' W 003°22'0 0.0
2015-Apr-09 13:33N 47°44' W 003°22'0 0.0
2015-Apr-09 12:33N 47°44' W 003°22'0 0.0
2015-Apr-09 11:33N 47°44' W 003°22'0 0.0
2015-Apr-09 10:33N 47°44' W 003°22'0 0.0
2015-Apr-09 09:33N 47°44' W 003°22'0 0.0
2015-Apr-09 08:33N 47°44' W 003°22'0 0.0
2015-Apr-09 07:33N 47°44' W 003°22'0 0.0
2015-Apr-09 06:33N 47°44' W 003°22'0 0.0
2015-Apr-09 05:33N 47°44' W 003°22'0 0.0
2015-Apr-09 04:33N 47°44' W 003°22'0 0.0
2015-Apr-09 03:33N 47°44' W 003°22'0 0.0
2015-Apr-09 02:33N 47°44' W 003°22'0 0.0
2015-Apr-09 01:33N 47°44' W 003°22'0 0.0
2015-Apr-09 00:33N 47°44' W 003°22'0 0.0
2015-Apr-08 23:33N 47°44' W 003°22'0 0.0
2015-Apr-08 22:33N 47°44' W 003°22'0 0.0
2015-Apr-08 21:33N 47°44' W 003°22'0 0.0
2015-Apr-08 20:33N 47°44' W 003°22'0 0.0
2015-Apr-08 19:33N 47°44' W 003°22'0 0.0
2015-Apr-08 18:33N 47°44' W 003°22'0 0.0
2015-Apr-08 17:33N 47°44' W 003°22'0 0.0
2015-Apr-08 16:33N 47°44' W 003°22'0 0.0
2015-Apr-08 15:33N 47°44' W 003°22'0 0.0
2015-Apr-08 14:33N 47°44' W 003°22'0 0.2
2015-Apr-08 13:33N 47°44' W 003°22'0 0.1
2015-Apr-08 12:33N 47°44' W 003°22'0 0.0
2015-Apr-08 11:33N 47°44' W 003°22'0 0.0
2015-Apr-08 10:33N 47°44' W 003°22'0 0.0
2015-Apr-08 09:33N 47°44' W 003°22'0 0.0
2015-Apr-08 08:33N 47°44' W 003°22'0 0.0
2015-Apr-08 07:33N 47°44' W 003°22'0 0.0
2015-Apr-08 06:33N 47°44' W 003°22'0 0.0
2015-Apr-08 05:33N 47°44' W 003°22'0 0.0
2015-Apr-08 04:33N 47°44' W 003°22'0 0.0
2015-Apr-08 03:33N 47°44' W 003°22'0 0.0
2015-Apr-08 02:33N 47°44' W 003°22'0 0.0
2015-Apr-08 01:33N 47°44' W 003°22'0 0.0
2015-Apr-08 00:33N 47°44' W 003°22'0 0.0
2015-Apr-07 23:33N 47°44' W 003°22'0 0.0
2015-Apr-07 22:33N 47°44' W 003°22'0 0.0
2015-Apr-07 21:33N 47°44' W 003°22'0 0.0
2015-Apr-07 20:33N 47°44' W 003°22'0 0.0
2015-Apr-07 19:33N 47°44' W 003°22'0 0.0
2015-Apr-07 18:32N 47°44' W 003°22'0 0.0
2015-Apr-07 17:33N 47°44' W 003°22'0 0.0
2015-Apr-07 16:33N 47°44' W 003°22'0 0.0
2015-Apr-07 15:33N 47°44' W 003°22'0 0.0
2015-Apr-07 14:33N 47°44' W 003°22'0 0.0
2015-Apr-07 09:13N 47°44' W 003°22'0 0.0
2015-Apr-07 08:33N 47°44' W 003°22'0 0.0
2015-Apr-07 07:33N 47°44' W 003°22'0 0.0
2015-Apr-07 06:33N 47°44' W 003°22'0 0.0
2015-Apr-07 05:33N 47°44' W 003°22'0 0.0
2015-Apr-07 04:33N 47°44' W 003°22'0 0.0
2015-Apr-07 03:33N 47°44' W 003°22'0 0.0
2015-Apr-07 02:33N 47°44' W 003°22'0 0.0
2015-Apr-07 01:33N 47°44' W 003°22'0 0.0
2015-Apr-07 00:33N 47°44' W 003°22'  
Track history (hours):
 
Tides and Currents Weather Stations Pressure Air Temp Water Temp Dewpoint Dewpoint Depression Visibility Wind Speed Wind Dir Waves Ship Positions

F/V Anna Mamm Mari

Last reported at 2015-Apr-17 00:24 UTC. Time now 2015-Apr-18 16:42 UTC.
Position N 46°34' W 002°06'.

Length 17 m.

Type: Fishing. MMSI: 228393000.

Date/timePositionNaut miles runAvg speedWind from/ knotsBaromVisibWave heightAir tempDewpointWater temp
2015-Apr-17 00:24N 46°34' W 002°06'7 8.4
2015-Apr-16 23:33N 46°31' W 001°57'7 6.8
2015-Apr-16 22:33N 46°29' W 001°48'1 0.5
2015-Apr-16 21:33N 46°30' W 001°47'0 0.0
2015-Apr-16 20:33N 46°30' W 001°47'0 0.0
2015-Apr-16 19:33N 46°30' W 001°47'0 0.0
2015-Apr-16 18:33N 46°30' W 001°47'0 0.1
2015-Apr-16 17:33N 46°30' W 001°47'0 0.2
2015-Apr-16 16:34N 46°30' W 001°47'6 6.2
2015-Apr-16 15:33N 46°31' W 001°56'9 9.3
2015-Apr-16 14:33N 46°35' W 002°09'39 4.9
2015-Apr-16 06:31N 46°52' W 002°59'2 1.8
2015-Apr-16 05:25N 46°51' W 003°02'1 1.5
2015-Apr-16 04:33N 46°51' W 003°04'3 3.3
2015-Apr-16 03:32N 46°54' W 003°03'2 2.0
2015-Apr-16 02:33N 46°56' W 003°04'2 1.9
2015-Apr-16 01:33N 46°58' W 003°05'0 0.4
2015-Apr-16 00:32N 46°58' W 003°06'0 0.0
2015-Apr-15 23:33N 46°58' W 003°06'0 0.0
2015-Apr-15 22:22N 46°58' W 003°06'0 0.0
2015-Apr-15 19:09N 46°58' W 003°06'0 0.0
2015-Apr-15 17:32N 46°58' W 003°06'6 0.8
2015-Apr-15 09:31N 46°52' W 003°07'3 2.6
2015-Apr-15 08:33N 46°55' W 003°07'2 1.5
2015-Apr-15 07:33N 46°56' W 003°08'2 1.4
2015-Apr-15 06:29N 46°57' W 003°09'2 1.7
2015-Apr-15 05:18N 46°55' W 003°08'1 1.3
2015-Apr-15 04:24N 46°54' W 003°07'2 1.9
2015-Apr-15 03:32N 46°56' W 003°07'46 1.7
2015-Apr-14 00:12N 46°34' W 002°08'6 9.1
2015-Apr-13 23:30N 46°32' W 001°60'9 9.2
2015-Apr-13 22:33N 46°28' W 001°48'2 1.6
2015-Apr-13 21:33N 46°30' W 001°47'0 0.2
2015-Apr-13 20:33N 46°30' W 001°47'0 0.0
2015-Apr-13 19:33N 46°30' W 001°47'0 0.0
2015-Apr-13 18:33N 46°30' W 001°47'3 2.7
2015-Apr-13 17:33N 46°29' W 001°51'9 8.9
2015-Apr-13 16:33N 46°32' W 002°03'10 8.9
2015-Apr-13 15:26N 46°36' W 002°16'44 5.5
2015-Apr-13 07:21N 47°03' W 003°08'31 8.2
2015-Apr-13 03:32N 47°33' W 003°20'8 8.4
2015-Apr-13 02:33N 47°41' W 003°22'  
2015-Apr-10 16:33N 47°44' W 003°22'0 0.0
2015-Apr-10 15:33N 47°44' W 003°22'0 0.0
2015-Apr-10 14:33N 47°44' W 003°22'0 0.0
2015-Apr-10 13:33N 47°44' W 003°22'0 0.0
2015-Apr-10 12:33N 47°44' W 003°22'0 0.0
2015-Apr-10 11:33N 47°44' W 003°22'0 0.0
2015-Apr-10 10:33N 47°44' W 003°22'0 0.0
2015-Apr-10 05:30N 47°44' W 003°22'0 0.0
2015-Apr-10 04:33N 47°44' W 003°22'0 0.0
2015-Apr-10 03:33N 47°44' W 003°22'0 0.0
2015-Apr-10 02:32N 47°44' W 003°22'0 0.0
2015-Apr-10 01:33N 47°44' W 003°22'0 0.0
2015-Apr-10 00:33N 47°44' W 003°22'0 0.0
2015-Apr-09 23:33N 47°44' W 003°22'0 0.0
2015-Apr-09 22:33N 47°44' W 003°22'0 0.0
2015-Apr-09 21:33N 47°44' W 003°22'0 0.0
2015-Apr-09 20:33N 47°44' W 003°22'0 0.0
2015-Apr-09 19:33N 47°44' W 003°22'0 0.0
2015-Apr-09 18:33N 47°44' W 003°22'0 0.0
2015-Apr-09 17:32N 47°44' W 003°22'0 0.0
2015-Apr-09 16:33N 47°44' W 003°22'0 0.0
2015-Apr-09 15:33N 47°44' W 003°22'0 0.0
2015-Apr-09 14:33N 47°44' W 003°22'0 0.0
2015-Apr-09 13:33N 47°44' W 003°22'0 0.0
2015-Apr-09 12:33N 47°44' W 003°22'0 0.0
2015-Apr-09 11:33N 47°44' W 003°22'0 0.0
2015-Apr-09 10:33N 47°44' W 003°22'0 0.0
2015-Apr-09 09:33N 47°44' W 003°22'0 0.0
2015-Apr-09 08:33N 47°44' W 003°22'0 0.0
2015-Apr-09 07:33N 47°44' W 003°22'0 0.0
2015-Apr-09 06:33N 47°44' W 003°22'0 0.0
2015-Apr-09 05:33N 47°44' W 003°22'0 0.0
2015-Apr-09 04:33N 47°44' W 003°22'0 0.0
2015-Apr-09 03:33N 47°44' W 003°22'0 0.0
2015-Apr-09 02:33N 47°44' W 003°22'0 0.0
2015-Apr-09 01:33N 47°44' W 003°22'0 0.0
2015-Apr-09 00:33N 47°44' W 003°22'0 0.0
2015-Apr-08 23:33N 47°44' W 003°22'0 0.0
2015-Apr-08 22:33N 47°44' W 003°22'0 0.0
2015-Apr-08 21:33N 47°44' W 003°22'0 0.0
2015-Apr-08 20:33N 47°44' W 003°22'0 0.0
2015-Apr-08 19:33N 47°44' W 003°22'0 0.0
2015-Apr-08 18:33N 47°44' W 003°22'0 0.0
2015-Apr-08 17:33N 47°44' W 003°22'0 0.0
2015-Apr-08 16:33N 47°44' W 003°22'0 0.0
2015-Apr-08 15:33N 47°44' W 003°22'0 0.0
2015-Apr-08 14:33N 47°44' W 003°22'0 0.2
2015-Apr-08 13:33N 47°44' W 003°22'0 0.1
2015-Apr-08 12:33N 47°44' W 003°22'0 0.0
2015-Apr-08 11:33N 47°44' W 003°22'0 0.0
2015-Apr-08 10:33N 47°44' W 003°22'0 0.0
2015-Apr-08 09:33N 47°44' W 003°22'0 0.0
2015-Apr-08 08:33N 47°44' W 003°22'0 0.0
2015-Apr-08 07:33N 47°44' W 003°22'0 0.0
2015-Apr-08 06:33N 47°44' W 003°22'0 0.0
2015-Apr-08 05:33N 47°44' W 003°22'0 0.0
2015-Apr-08 04:33N 47°44' W 003°22'0 0.0
2015-Apr-08 03:33N 47°44' W 003°22'0 0.0
2015-Apr-08 02:33N 47°44' W 003°22'0 0.0
2015-Apr-08 01:33N 47°44' W 003°22'0 0.0
2015-Apr-08 00:33N 47°44' W 003°22'0 0.0
2015-Apr-07 23:33N 47°44' W 003°22'0 0.0
2015-Apr-07 22:33N 47°44' W 003°22'0 0.0
2015-Apr-07 21:33N 47°44' W 003°22'0 0.0
2015-Apr-07 20:33N 47°44' W 003°22'0 0.0
2015-Apr-07 19:33N 47°44' W 003°22'0 0.0
2015-Apr-07 18:32N 47°44' W 003°22'0 0.0
2015-Apr-07 17:33N 47°44' W 003°22'0 0.0
2015-Apr-07 16:33N 47°44' W 003°22'0 0.0
2015-Apr-07 15:33N 47°44' W 003°22'0 0.0
2015-Apr-07 14:33N 47°44' W 003°22'0 0.0
2015-Apr-07 09:13N 47°44' W 003°22'0 0.0
2015-Apr-07 08:33N 47°44' W 003°22'0 0.0
2015-Apr-07 07:33N 47°44' W 003°22'0 0.0
2015-Apr-07 06:33N 47°44' W 003°22'0 0.0
2015-Apr-07 05:33N 47°44' W 003°22'0 0.0
2015-Apr-07 04:33N 47°44' W 003°22'0 0.0
2015-Apr-07 03:33N 47°44' W 003°22'0 0.0
2015-Apr-07 02:33N 47°44' W 003°22'0 0.0
2015-Apr-07 01:33N 47°44' W 003°22'0 0.0
2015-Apr-07 00:33N 47°44' W 003°22'  

Dump ship's entire track history